sensor_id;sensor_type;location;lat;lon;timestamp;pressure;altitude;pressure_sealevel;temperature;humidity
41044;BME280;51680;49.806;18.774;2022-10-03T00:01:15;97308.63;;;13.84;80.92
41044;BME280;51680;49.806;18.774;2022-10-03T00:04:42;97306.97;;;13.83;81.15
41044;BME280;51680;49.806;18.774;2022-10-03T00:08:01;97311.63;;;13.79;81.14
41044;BME280;51680;49.806;18.774;2022-10-03T00:11:14;97304.94;;;13.75;80.57
41044;BME280;51680;49.806;18.774;2022-10-03T00:14:27;97315.66;;;13.72;80.40
41044;BME280;51680;49.806;18.774;2022-10-03T00:17:40;97309.84;;;13.69;80.48
41044;BME280;51680;49.806;18.774;2022-10-03T00:20:58;97306.63;;;13.65;80.48
41044;BME280;51680;49.806;18.774;2022-10-03T00:24:33;97309.47;;;13.62;80.89
41044;BME280;51680;49.806;18.774;2022-10-03T00:28:11;97311.97;;;13.64;80.99
41044;BME280;51680;49.806;18.774;2022-10-03T00:31:44;97305.88;;;13.63;80.64
41044;BME280;51680;49.806;18.774;2022-10-03T00:35:31;97308.88;;;13.59;80.64
41044;BME280;51680;49.806;18.774;2022-10-03T00:39:16;97312.31;;;13.48;80.94
41044;BME280;51680;49.806;18.774;2022-10-03T00:43:12;97319.59;;;13.34;81.90
41044;BME280;51680;49.806;18.774;2022-10-03T00:47:15;97312.25;;;13.15;82.24
41044;BME280;51680;49.806;18.774;2022-10-03T00:50:54;97307.94;;;13.03;82.14
41044;BME280;51680;49.806;18.774;2022-10-03T00:54:35;97311.34;;;12.93;82.94
41044;BME280;51680;49.806;18.774;2022-10-03T00:58:31;97305.22;;;12.81;83.68
41044;BME280;51680;49.806;18.774;2022-10-03T01:01:56;97319.47;;;12.77;82.20
41044;BME280;51680;49.806;18.774;2022-10-03T01:05:29;97307.13;;;12.79;83.15
41044;BME280;51680;49.806;18.774;2022-10-03T01:09:05;97304.00;;;12.74;83.71
41044;BME280;51680;49.806;18.774;2022-10-03T01:16:24;97306.94;;;12.93;83.26
41044;BME280;51680;49.806;18.774;2022-10-03T01:20:11;97308.06;;;13.02;83.71
41044;BME280;51680;49.806;18.774;2022-10-03T01:23:43;97299.84;;;13.06;84.07
41044;BME280;51680;49.806;18.774;2022-10-03T01:26:57;97299.97;;;13.05;82.74
41044;BME280;51680;49.806;18.774;2022-10-03T01:30:03;97299.63;;;13.09;82.25
41044;BME280;51680;49.806;18.774;2022-10-03T01:33:26;97296.66;;;13.14;82.75
41044;BME280;51680;49.806;18.774;2022-10-03T01:36:36;97302.72;;;13.14;82.18
41044;BME280;51680;49.806;18.774;2022-10-03T01:39:47;97306.09;;;13.16;82.88
41044;BME280;51680;49.806;18.774;2022-10-03T01:42:59;97305.84;;;13.19;82.68
41044;BME280;51680;49.806;18.774;2022-10-03T01:46:11;97305.03;;;13.19;82.78
41044;BME280;51680;49.806;18.774;2022-10-03T01:49:22;97300.59;;;13.19;82.92
41044;BME280;51680;49.806;18.774;2022-10-03T01:52:35;97299.53;;;13.22;83.29
41044;BME280;51680;49.806;18.774;2022-10-03T01:55:50;97303.94;;;13.21;83.30
41044;BME280;51680;49.806;18.774;2022-10-03T01:59:01;97308.94;;;13.24;82.92
41044;BME280;51680;49.806;18.774;2022-10-03T02:02:13;97314.56;;;13.31;82.95
41044;BME280;51680;49.806;18.774;2022-10-03T02:05:21;97315.25;;;13.33;82.91
41044;BME280;51680;49.806;18.774;2022-10-03T02:08:34;97320.41;;;13.34;83.23
41044;BME280;51680;49.806;18.774;2022-10-03T02:11:58;97320.66;;;13.31;83.31
41044;BME280;51680;49.806;18.774;2022-10-03T02:15:10;97316.81;;;13.35;82.98
41044;BME280;51680;49.806;18.774;2022-10-03T02:18:22;97314.09;;;13.37;83.17
41044;BME280;51680;49.806;18.774;2022-10-03T02:21:29;97307.28;;;13.34;82.73
41044;BME280;51680;49.806;18.774;2022-10-03T02:24:42;97312.41;;;13.36;83.20
41044;BME280;51680;49.806;18.774;2022-10-03T02:28:22;97307.41;;;13.33;83.75
41044;BME280;51680;49.806;18.774;2022-10-03T02:32:08;97307.06;;;13.26;84.36
41044;BME280;51680;49.806;18.774;2022-10-03T02:35:42;97312.31;;;13.26;83.71
41044;BME280;51680;49.806;18.774;2022-10-03T02:39:18;97330.75;;;13.25;83.93
41044;BME280;51680;49.806;18.774;2022-10-03T02:46:25;97317.97;;;13.20;83.90
41044;BME280;51680;49.806;18.774;2022-10-03T02:50:14;97313.00;;;13.17;84.59
41044;BME280;51680;49.806;18.774;2022-10-03T02:53:42;97309.19;;;13.21;84.28
41044;BME280;51680;49.806;18.774;2022-10-03T02:57:15;97309.53;;;13.17;84.35
41044;BME280;51680;49.806;18.774;2022-10-03T03:00:38;97311.44;;;13.15;83.97
41044;BME280;51680;49.806;18.774;2022-10-03T03:04:07;97311.56;;;13.13;84.36
41044;BME280;51680;49.806;18.774;2022-10-03T03:07:44;97321.44;;;13.10;84.62
41044;BME280;51680;49.806;18.774;2022-10-03T03:18:21;97311.16;;;13.07;84.47
41044;BME280;51680;49.806;18.774;2022-10-03T03:21:35;97306.53;;;13.10;84.28
41044;BME280;51680;49.806;18.774;2022-10-03T03:24:53;97315.22;;;13.11;84.30
41044;BME280;51680;49.806;18.774;2022-10-03T03:28:10;97318.91;;;13.08;84.54
41044;BME280;51680;49.806;18.774;2022-10-03T03:31:17;97316.91;;;13.12;84.19
41044;BME280;51680;49.806;18.774;2022-10-03T03:34:30;97315.34;;;13.09;84.53
41044;BME280;51680;49.806;18.774;2022-10-03T03:37:41;97309.41;;;13.07;84.56
41044;BME280;51680;49.806;18.774;2022-10-03T03:40:58;97315.34;;;13.09;84.87
41044;BME280;51680;49.806;18.774;2022-10-03T03:44:18;97320.59;;;13.09;84.31
41044;BME280;51680;49.806;18.774;2022-10-03T03:47:39;97312.03;;;13.07;84.47
41044;BME280;51680;49.806;18.774;2022-10-03T03:50:56;97318.19;;;13.06;84.87
41044;BME280;51680;49.806;18.774;2022-10-03T03:54:30;97324.38;;;13.05;84.96
41044;BME280;51680;49.806;18.774;2022-10-03T03:57:56;97327.00;;;13.05;85.19
41044;BME280;51680;49.806;18.774;2022-10-03T04:01:13;97327.50;;;13.10;84.47
41044;BME280;51680;49.806;18.774;2022-10-03T04:04:34;97328.44;;;13.09;84.98
41044;BME280;51680;49.806;18.774;2022-10-03T04:07:52;97327.06;;;13.16;84.57
41044;BME280;51680;49.806;18.774;2022-10-03T04:11:09;97333.59;;;13.22;84.14
41044;BME280;51680;49.806;18.774;2022-10-03T04:14:42;97337.56;;;13.27;84.23
41044;BME280;51680;49.806;18.774;2022-10-03T04:17:55;97344.47;;;13.28;84.01
41044;BME280;51680;49.806;18.774;2022-10-03T04:21:27;97333.88;;;13.30;84.03
41044;BME280;51680;49.806;18.774;2022-10-03T04:28:10;97338.88;;;13.33;83.88
41044;BME280;51680;49.806;18.774;2022-10-03T04:31:25;97327.56;;;13.32;83.82
41044;BME280;51680;49.806;18.774;2022-10-03T04:34:43;97329.22;;;13.33;84.00
41044;BME280;51680;49.806;18.774;2022-10-03T04:37:51;97331.84;;;13.33;83.78
41044;BME280;51680;49.806;18.774;2022-10-03T04:41:04;97322.31;;;13.32;84.19
41044;BME280;51680;49.806;18.774;2022-10-03T04:44:17;97318.72;;;13.33;84.07
41044;BME280;51680;49.806;18.774;2022-10-03T04:47:30;97344.25;;;13.31;83.77
41044;BME280;51680;49.806;18.774;2022-10-03T04:50:39;97345.16;;;13.30;84.15
41044;BME280;51680;49.806;18.774;2022-10-03T04:53:51;97353.53;;;13.35;84.11
41044;BME280;51680;49.806;18.774;2022-10-03T04:57:02;97358.44;;;13.29;83.96
41044;BME280;51680;49.806;18.774;2022-10-03T05:00:20;97354.56;;;13.22;84.63
41044;BME280;51680;49.806;18.774;2022-10-03T05:03:36;97361.63;;;13.21;84.43
41044;BME280;51680;49.806;18.774;2022-10-03T05:06:47;97361.72;;;13.20;84.21
41044;BME280;51680;49.806;18.774;2022-10-03T05:09:55;97370.66;;;13.17;84.10
41044;BME280;51680;49.806;18.774;2022-10-03T05:13:07;97370.66;;;13.17;84.77
41044;BME280;51680;49.806;18.774;2022-10-03T05:16:22;97378.41;;;13.19;84.65
41044;BME280;51680;49.806;18.774;2022-10-03T05:20:00;97374.00;;;13.19;85.13
41044;BME280;51680;49.806;18.774;2022-10-03T05:23:12;97378.28;;;13.20;84.46
41044;BME280;51680;49.806;18.774;2022-10-03T05:26:23;97364.34;;;13.20;84.11
41044;BME280;51680;49.806;18.774;2022-10-03T05:29:36;97362.44;;;13.22;84.51
41044;BME280;51680;49.806;18.774;2022-10-03T05:32:46;97378.75;;;13.25;83.90
41044;BME280;51680;49.806;18.774;2022-10-03T05:36:05;97390.00;;;13.27;83.77
41044;BME280;51680;49.806;18.774;2022-10-03T05:39:25;97385.47;;;13.29;83.85
41044;BME280;51680;49.806;18.774;2022-10-03T05:42:38;97382.72;;;13.31;83.75
41044;BME280;51680;49.806;18.774;2022-10-03T05:45:55;97385.47;;;13.29;83.77
41044;BME280;51680;49.806;18.774;2022-10-03T05:49:14;97387.25;;;13.29;83.38
41044;BME280;51680;49.806;18.774;2022-10-03T05:52:38;97405.47;;;13.30;83.81
41044;BME280;51680;49.806;18.774;2022-10-03T05:55:52;97395.63;;;13.34;83.32
41044;BME280;51680;49.806;18.774;2022-10-03T05:59:25;97397.06;;;13.38;83.85
41044;BME280;51680;49.806;18.774;2022-10-03T06:03:05;97395.53;;;13.46;83.78
41044;BME280;51680;49.806;18.774;2022-10-03T06:06:16;97395.81;;;13.87;82.05
41044;BME280;51680;49.806;18.774;2022-10-03T06:10:10;97387.03;;;13.88;81.56
41044;BME280;51680;49.806;18.774;2022-10-03T06:13:26;97391.06;;;13.92;80.49
41044;BME280;51680;49.806;18.774;2022-10-03T06:16:39;97394.72;;;14.67;79.15
41044;BME280;51680;49.806;18.774;2022-10-03T06:19:49;97397.84;;;14.72;78.44
41044;BME280;51680;49.806;18.774;2022-10-03T06:23:16;97397.06;;;14.81;78.57
41044;BME280;51680;49.806;18.774;2022-10-03T06:30:03;97404.03;;;15.13;77.18
41044;BME280;51680;49.806;18.774;2022-10-03T06:33:32;97406.22;;;15.08;77.12
41044;BME280;51680;49.806;18.774;2022-10-03T06:36:59;97413.34;;;15.17;77.53
41044;BME280;51680;49.806;18.774;2022-10-03T06:40:39;97411.63;;;15.27;77.09
41044;BME280;51680;49.806;18.774;2022-10-03T06:44:03;97409.03;;;15.16;77.18
41044;BME280;51680;49.806;18.774;2022-10-03T06:47:30;97413.19;;;14.98;77.91
41044;BME280;51680;49.806;18.774;2022-10-03T06:50:52;97417.88;;;14.84;78.39
41044;BME280;51680;49.806;18.774;2022-10-03T06:54:18;97423.78;;;14.65;78.96
41044;BME280;51680;49.806;18.774;2022-10-03T06:57:41;97415.31;;;14.51;79.28
41044;BME280;51680;49.806;18.774;2022-10-03T07:00:54;97429.88;;;14.44;79.75
41044;BME280;51680;49.806;18.774;2022-10-03T07:04:13;97423.31;;;14.38;80.25
41044;BME280;51680;49.806;18.774;2022-10-03T07:07:45;97423.44;;;14.37;79.64
41044;BME280;51680;49.806;18.774;2022-10-03T07:11:18;97431.22;;;14.27;80.06
41044;BME280;51680;49.806;18.774;2022-10-03T07:14:42;97429.03;;;14.21;80.29
41044;BME280;51680;49.806;18.774;2022-10-03T07:18:13;97445.53;;;14.23;80.44
41044;BME280;51680;49.806;18.774;2022-10-03T07:21:47;97433.22;;;14.46;81.06
41044;BME280;51680;49.806;18.774;2022-10-03T07:25:13;97433.50;;;14.96;79.50
41044;BME280;51680;49.806;18.774;2022-10-03T07:28:53;97425.38;;;16.73;76.68
41044;BME280;51680;49.806;18.774;2022-10-03T07:32:19;97402.31;;;18.81;69.26
41044;BME280;51680;49.806;18.774;2022-10-03T07:43:47;97419.97;;;18.07;66.67
41044;BME280;51680;49.806;18.774;2022-10-03T07:47:39;97414.06;;;17.29;68.53
41044;BME280;51680;49.806;18.774;2022-10-03T07:50:56;97419.13;;;16.74;71.33
41044;BME280;51680;49.806;18.774;2022-10-03T07:58:03;97418.72;;;15.88;73.76
41044;BME280;51680;49.806;18.774;2022-10-03T08:01:18;97426.66;;;15.68;74.91
41044;BME280;51680;49.806;18.774;2022-10-03T08:04:55;97427.34;;;15.49;75.29
41044;BME280;51680;49.806;18.774;2022-10-03T08:08:22;97439.34;;;15.31;76.09
41044;BME280;51680;49.806;18.774;2022-10-03T08:11:40;97436.06;;;15.07;77.23
41044;BME280;51680;49.806;18.774;2022-10-03T08:14:55;97428.34;;;14.95;77.77
41044;BME280;51680;49.806;18.774;2022-10-03T08:18:35;97433.50;;;15.28;78.50
41044;BME280;51680;49.806;18.774;2022-10-03T08:21:57;97430.81;;;15.70;76.12
41044;BME280;51680;49.806;18.774;2022-10-03T08:25:24;97429.53;;;15.85;74.71
41044;BME280;51680;49.806;18.774;2022-10-03T08:28:50;97419.44;;;15.90;74.21
41044;BME280;51680;49.806;18.774;2022-10-03T08:32:26;97413.28;;;15.80;74.75
41044;BME280;51680;49.806;18.774;2022-10-03T08:39:13;97434.47;;;15.27;76.08
41044;BME280;51680;49.806;18.774;2022-10-03T08:42:32;97419.66;;;14.94;78.17
41044;BME280;51680;49.806;18.774;2022-10-03T08:45:57;97425.44;;;14.66;78.52
41044;BME280;51680;49.806;18.774;2022-10-03T08:49:16;97432.38;;;14.56;79.00
41044;BME280;51680;49.806;18.774;2022-10-03T08:52:33;97431.41;;;14.57;79.32
41044;BME280;51680;49.806;18.774;2022-10-03T08:55:55;97432.84;;;14.61;79.70
41044;BME280;51680;49.806;18.774;2022-10-03T08:59:12;97432.34;;;14.67;79.65
41044;BME280;51680;49.806;18.774;2022-10-03T09:02:35;97430.91;;;14.85;80.20
41044;BME280;51680;49.806;18.774;2022-10-03T09:06:19;97430.06;;;14.85;79.35
41044;BME280;51680;49.806;18.774;2022-10-03T09:10:07;97432.31;;;14.78;79.43
41044;BME280;51680;49.806;18.774;2022-10-03T09:13:31;97430.94;;;14.74;79.51
41044;BME280;51680;49.806;18.774;2022-10-03T09:16:52;97425.19;;;14.69;79.94
41044;BME280;51680;49.806;18.774;2022-10-03T09:20:22;97440.00;;;14.70;79.83
41044;BME280;51680;49.806;18.774;2022-10-03T09:23:51;97445.16;;;14.72;79.74
41044;BME280;51680;49.806;18.774;2022-10-03T09:27:15;97424.84;;;14.63;79.73
41044;BME280;51680;49.806;18.774;2022-10-03T09:30:34;97422.84;;;14.55;79.63
41044;BME280;51680;49.806;18.774;2022-10-03T09:33:50;97436.06;;;14.65;80.07
41044;BME280;51680;49.806;18.774;2022-10-03T09:37:26;97426.50;;;14.75;79.87
41044;BME280;51680;49.806;18.774;2022-10-03T09:41:19;97431.59;;;14.87;79.53
41044;BME280;51680;49.806;18.774;2022-10-03T09:44:35;97427.50;;;15.05;78.50
41044;BME280;51680;49.806;18.774;2022-10-03T09:51:38;97447.00;;;14.92;78.58
41044;BME280;51680;49.806;18.774;2022-10-03T09:55:05;97442.13;;;14.76;79.84
41044;BME280;51680;49.806;18.774;2022-10-03T09:58:31;97448.81;;;14.80;80.22
41044;BME280;51680;49.806;18.774;2022-10-03T10:01:43;97442.34;;;14.95;79.30
41044;BME280;51680;49.806;18.774;2022-10-03T10:05:01;97437.53;;;15.00;79.11
41044;BME280;51680;49.806;18.774;2022-10-03T10:08:37;97435.16;;;14.97;79.09
41044;BME280;51680;49.806;18.774;2022-10-03T10:15:45;97445.94;;;14.83;80.16
41044;BME280;51680;49.806;18.774;2022-10-03T10:19:22;97449.06;;;14.77;80.80
41044;BME280;51680;49.806;18.774;2022-10-03T10:30:11;97433.06;;;15.54;78.92
41044;BME280;51680;49.806;18.774;2022-10-03T10:52:33;97429.59;;;15.54;77.56
41044;BME280;51680;49.806;18.774;2022-10-03T10:59:50;97441.28;;;15.29;78.06
41044;BME280;51680;49.806;18.774;2022-10-03T11:07:10;97443.69;;;15.21;78.37
41044;BME280;51680;49.806;18.774;2022-10-03T11:10:34;97450.44;;;15.46;78.32
41044;BME280;51680;49.806;18.774;2022-10-03T11:14:14;97439.63;;;15.80;77.56
41044;BME280;51680;49.806;18.774;2022-10-03T11:17:41;97452.00;;;15.89;76.79
41044;BME280;51680;49.806;18.774;2022-10-03T11:28:49;97446.75;;;15.89;75.77
41044;BME280;51680;49.806;18.774;2022-10-03T11:39:30;97467.22;;;15.34;78.07
41044;BME280;51680;49.806;18.774;2022-10-03T11:42:47;97474.31;;;15.22;77.97
41044;BME280;51680;49.806;18.774;2022-10-03T11:45:53;97464.06;;;15.08;78.30
41044;BME280;51680;49.806;18.774;2022-10-03T11:49:00;97483.91;;;15.01;78.61
41044;BME280;51680;49.806;18.774;2022-10-03T11:52:14;97476.50;;;14.95;79.56
41044;BME280;51680;49.806;18.774;2022-10-03T11:55:29;97464.56;;;14.91;79.53
41044;BME280;51680;49.806;18.774;2022-10-03T11:58:44;97464.94;;;14.87;79.55
41044;BME280;51680;49.806;18.774;2022-10-03T12:02:05;97471.75;;;14.78;80.02
41044;BME280;51680;49.806;18.774;2022-10-03T12:05:16;97467.22;;;14.80;79.79
41044;BME280;51680;49.806;18.774;2022-10-03T12:08:24;97468.41;;;14.76;79.67
41044;BME280;51680;49.806;18.774;2022-10-03T12:11:50;97480.34;;;14.69;79.70
41044;BME280;51680;49.806;18.774;2022-10-03T12:15:01;97473.94;;;14.62;79.95
41044;BME280;51680;49.806;18.774;2022-10-03T12:18:12;97479.66;;;14.56;79.99
41044;BME280;51680;49.806;18.774;2022-10-03T12:21:18;97472.97;;;14.52;80.13
41044;BME280;51680;49.806;18.774;2022-10-03T12:24:25;97471.06;;;14.54;79.94
41044;BME280;51680;49.806;18.774;2022-10-03T12:27:38;97478.72;;;14.57;80.17
41044;BME280;51680;49.806;18.774;2022-10-03T12:30:47;97470.59;;;14.49;80.34
41044;BME280;51680;49.806;18.774;2022-10-03T12:33:55;97481.59;;;14.32;80.62
41044;BME280;51680;49.806;18.774;2022-10-03T12:37:13;97478.19;;;14.19;81.61
41044;BME280;51680;49.806;18.774;2022-10-03T12:40:24;97481.03;;;14.16;81.80
41044;BME280;51680;49.806;18.774;2022-10-03T12:43:40;97499.41;;;14.16;82.28
41044;BME280;51680;49.806;18.774;2022-10-03T12:46:54;97486.06;;;14.19;82.02
41044;BME280;51680;49.806;18.774;2022-10-03T12:50:13;97500.44;;;14.26;82.27
41044;BME280;51680;49.806;18.774;2022-10-03T12:53:23;97493.16;;;14.30;81.97
41044;BME280;51680;49.806;18.774;2022-10-03T12:56:34;97499.00;;;14.33;82.50
41044;BME280;51680;49.806;18.774;2022-10-03T12:59:42;97493.66;;;14.35;82.02
41044;BME280;51680;49.806;18.774;2022-10-03T13:02:52;97489.94;;;14.37;82.13
41044;BME280;51680;49.806;18.774;2022-10-03T13:06:33;97484.44;;;14.40;82.83
41044;BME280;51680;49.806;18.774;2022-10-03T13:09:53;97485.16;;;14.42;82.63
41044;BME280;51680;49.806;18.774;2022-10-03T13:13:09;97479.44;;;14.48;82.11
41044;BME280;51680;49.806;18.774;2022-10-03T13:16:20;97485.75;;;14.46;82.38
41044;BME280;51680;49.806;18.774;2022-10-03T13:19:29;97492.69;;;14.47;82.44
41044;BME280;51680;49.806;18.774;2022-10-03T13:22:40;97484.69;;;14.48;82.75
41044;BME280;51680;49.806;18.774;2022-10-03T13:25:51;97479.91;;;14.53;82.62
41044;BME280;51680;49.806;18.774;2022-10-03T13:29:20;97497.81;;;14.59;82.60
41044;BME280;51680;49.806;18.774;2022-10-03T13:32:29;97491.59;;;14.71;81.89
41044;BME280;51680;49.806;18.774;2022-10-03T13:35:37;97486.69;;;14.78;81.01
41044;BME280;51680;49.806;18.774;2022-10-03T13:39:08;97489.91;;;14.81;80.82
41044;BME280;51680;49.806;18.774;2022-10-03T13:42:16;97487.91;;;14.74;80.78
41044;BME280;51680;49.806;18.774;2022-10-03T13:45:22;97492.56;;;14.70;80.66
41044;BME280;51680;49.806;18.774;2022-10-03T13:48:27;97493.28;;;14.72;80.16
41044;BME280;51680;49.806;18.774;2022-10-03T13:51:40;97492.19;;;14.75;79.72
41044;BME280;51680;49.806;18.774;2022-10-03T13:55:20;97492.31;;;14.73;79.75
41044;BME280;51680;49.806;18.774;2022-10-03T13:58:35;97497.22;;;14.78;79.56
41044;BME280;51680;49.806;18.774;2022-10-03T14:01:48;97488.00;;;14.83;79.63
41044;BME280;51680;49.806;18.774;2022-10-03T14:05:06;97485.63;;;14.80;79.14
41044;BME280;51680;49.806;18.774;2022-10-03T14:08:25;97487.03;;;14.73;79.19
41044;BME280;51680;49.806;18.774;2022-10-03T14:11:41;97482.19;;;14.58;79.78
41044;BME280;51680;49.806;18.774;2022-10-03T14:15:03;97501.19;;;14.50;79.72
41044;BME280;51680;49.806;18.774;2022-10-03T14:18:21;97508.22;;;14.50;79.61
41044;BME280;51680;49.806;18.774;2022-10-03T14:21:43;97516.94;;;14.50;79.79
41044;BME280;51680;49.806;18.774;2022-10-03T14:25:07;97510.94;;;14.48;79.94
41044;BME280;51680;49.806;18.774;2022-10-03T14:28:16;97503.88;;;14.38;81.02
41044;BME280;51680;49.806;18.774;2022-10-03T14:31:23;97514.31;;;14.50;80.30
41044;BME280;51680;49.806;18.774;2022-10-03T14:34:40;97525.41;;;14.54;80.09
41044;BME280;51680;49.806;18.774;2022-10-03T14:37:46;97526.59;;;14.61;79.92
41044;BME280;51680;49.806;18.774;2022-10-03T14:41:00;97529.34;;;14.59;79.77
41044;BME280;51680;49.806;18.774;2022-10-03T14:44:07;97532.91;;;14.58;79.86
41044;BME280;51680;49.806;18.774;2022-10-03T14:47:14;97546.78;;;14.60;80.14
41044;BME280;51680;49.806;18.774;2022-10-03T14:50:18;97538.19;;;14.58;79.69
41044;BME280;51680;49.806;18.774;2022-10-03T14:53:24;97539.38;;;14.54;79.44
41044;BME280;51680;49.806;18.774;2022-10-03T14:56:32;97546.66;;;14.51;79.74
41044;BME280;51680;49.806;18.774;2022-10-03T14:59:36;97539.50;;;14.53;79.59
41044;BME280;51680;49.806;18.774;2022-10-03T15:02:45;97552.88;;;14.50;79.57
41044;BME280;51680;49.806;18.774;2022-10-03T15:05:57;97555.59;;;14.37;79.99
41044;BME280;51680;49.806;18.774;2022-10-03T15:09:03;97557.38;;;14.26;80.30
41044;BME280;51680;49.806;18.774;2022-10-03T15:12:13;97561.63;;;14.16;80.57
41044;BME280;51680;49.806;18.774;2022-10-03T15:15:19;97563.66;;;14.12;80.89
41044;BME280;51680;49.806;18.774;2022-10-03T15:18:24;97567.34;;;14.10;81.09
41044;BME280;51680;49.806;18.774;2022-10-03T15:21:26;97563.97;;;14.08;81.43
41044;BME280;51680;49.806;18.774;2022-10-03T15:24:31;97560.75;;;14.04;81.47
41044;BME280;51680;49.806;18.774;2022-10-03T15:27:38;97567.88;;;14.02;81.54
41044;BME280;51680;49.806;18.774;2022-10-03T15:30:43;97562.97;;;13.98;81.91
41044;BME280;51680;49.806;18.774;2022-10-03T15:33:50;97567.38;;;13.97;82.20
41044;BME280;51680;49.806;18.774;2022-10-03T15:36:56;97566.78;;;13.94;82.27
41044;BME280;51680;49.806;18.774;2022-10-03T15:40:04;97570.47;;;13.91;82.63
41044;BME280;51680;49.806;18.774;2022-10-03T15:43:26;97566.19;;;13.90;83.24
41044;BME280;51680;49.806;18.774;2022-10-03T15:46:34;97569.16;;;13.86;83.05
41044;BME280;51680;49.806;18.774;2022-10-03T15:49:44;97571.91;;;13.84;83.04
41044;BME280;51680;49.806;18.774;2022-10-03T15:52:49;97570.44;;;13.80;83.49
41044;BME280;51680;49.806;18.774;2022-10-03T15:55:58;97575.91;;;13.77;83.78
41044;BME280;51680;49.806;18.774;2022-10-03T15:59:05;97582.81;;;13.78;83.88
41044;BME280;51680;49.806;18.774;2022-10-03T16:02:15;97581.03;;;13.79;84.17
41044;BME280;51680;49.806;18.774;2022-10-03T16:05:20;97579.38;;;13.78;84.29
41044;BME280;51680;49.806;18.774;2022-10-03T16:08:27;97581.66;;;13.82;84.39
41044;BME280;51680;49.806;18.774;2022-10-03T16:11:35;97585.03;;;13.84;84.18
41044;BME280;51680;49.806;18.774;2022-10-03T16:14:42;97584.91;;;13.86;84.06
41044;BME280;51680;49.806;18.774;2022-10-03T16:17:50;97593.59;;;13.86;84.23
41044;BME280;51680;49.806;18.774;2022-10-03T16:20:55;97586.78;;;13.84;84.15
41044;BME280;51680;49.806;18.774;2022-10-03T16:24:00;97594.06;;;13.80;84.26
41044;BME280;51680;49.806;18.774;2022-10-03T16:27:11;97593.56;;;13.75;84.47
41044;BME280;51680;49.806;18.774;2022-10-03T16:30:20;97598.22;;;13.72;84.52
41044;BME280;51680;49.806;18.774;2022-10-03T16:33:26;97606.78;;;13.74;84.63
41044;BME280;51680;49.806;18.774;2022-10-03T16:36:31;97600.69;;;13.73;84.48
41044;BME280;51680;49.806;18.774;2022-10-03T16:39:41;97605.84;;;13.75;84.59
41044;BME280;51680;49.806;18.774;2022-10-03T16:42:45;97601.53;;;13.74;84.59
41044;BME280;51680;49.806;18.774;2022-10-03T16:45:48;97597.97;;;13.75;84.46
41044;BME280;51680;49.806;18.774;2022-10-03T16:48:54;97605.00;;;13.74;84.61
41044;BME280;51680;49.806;18.774;2022-10-03T16:52:17;97598.53;;;13.67;84.93
41044;BME280;51680;49.806;18.774;2022-10-03T16:55:23;97604.38;;;13.71;84.93
41044;BME280;51680;49.806;18.774;2022-10-03T16:58:29;97602.38;;;13.74;84.69
41044;BME280;51680;49.806;18.774;2022-10-03T17:01:38;97609.53;;;13.72;84.79
41044;BME280;51680;49.806;18.774;2022-10-03T17:04:46;97608.81;;;13.70;84.65
41044;BME280;51680;49.806;18.774;2022-10-03T17:07:51;97616.69;;;13.70;84.62
41044;BME280;51680;49.806;18.774;2022-10-03T17:10:57;97625.50;;;13.69;84.69
41044;BME280;51680;49.806;18.774;2022-10-03T17:14:02;97617.28;;;13.74;84.99
41044;BME280;51680;49.806;18.774;2022-10-03T17:17:11;97604.06;;;13.75;84.81
41044;BME280;51680;49.806;18.774;2022-10-03T17:20:23;97605.94;;;13.73;84.67
41044;BME280;51680;49.806;18.774;2022-10-03T17:23:35;97609.97;;;13.66;84.28
41044;BME280;51680;49.806;18.774;2022-10-03T17:26:41;97610.31;;;13.62;84.25
41044;BME280;51680;49.806;18.774;2022-10-03T17:29:46;97612.75;;;13.52;84.38
41044;BME280;51680;49.806;18.774;2022-10-03T17:32:55;97627.13;;;13.47;84.69
41044;BME280;51680;49.806;18.774;2022-10-03T17:36:14;97622.13;;;13.44;84.95
41044;BME280;51680;49.806;18.774;2022-10-03T17:39:32;97626.63;;;13.42;85.62
41044;BME280;51680;49.806;18.774;2022-10-03T17:42:40;97613.84;;;13.37;85.24
41044;BME280;51680;49.806;18.774;2022-10-03T17:45:44;97626.00;;;13.38;85.15
41044;BME280;51680;49.806;18.774;2022-10-03T17:48:54;97625.06;;;13.39;85.32
41044;BME280;51680;49.806;18.774;2022-10-03T17:52:00;97623.28;;;13.40;85.10
41044;BME280;51680;49.806;18.774;2022-10-03T17:55:03;97616.47;;;13.37;85.12
41044;BME280;51680;49.806;18.774;2022-10-03T17:58:11;97613.84;;;13.37;85.30
41044;BME280;51680;49.806;18.774;2022-10-03T18:01:18;97619.31;;;13.34;85.58
41044;BME280;51680;49.806;18.774;2022-10-03T18:04:28;97617.63;;;13.33;85.68
41044;BME280;51680;49.806;18.774;2022-10-03T18:07:36;97626.22;;;13.35;85.59
41044;BME280;51680;49.806;18.774;2022-10-03T18:10:41;97624.34;;;13.37;85.33
41044;BME280;51680;49.806;18.774;2022-10-03T18:13:51;97623.28;;;13.40;85.49
41044;BME280;51680;49.806;18.774;2022-10-03T18:17:01;97631.25;;;13.38;85.34
41044;BME280;51680;49.806;18.774;2022-10-03T18:20:18;97635.78;;;13.36;85.82
41044;BME280;51680;49.806;18.774;2022-10-03T18:23:34;97635.28;;;13.31;85.39
41044;BME280;51680;49.806;18.774;2022-10-03T18:26:40;97625.72;;;13.30;85.55
41044;BME280;51680;49.806;18.774;2022-10-03T18:29:48;97633.56;;;13.30;85.75
41044;BME280;51680;49.806;18.774;2022-10-03T18:32:52;97626.66;;;13.29;85.97
41044;BME280;51680;49.806;18.774;2022-10-03T18:35:55;97633.75;;;13.16;86.70
41044;BME280;51680;49.806;18.774;2022-10-03T18:39:01;97646.63;;;13.19;85.84
41044;BME280;51680;49.806;18.774;2022-10-03T18:42:07;97637.59;;;13.23;85.97
41044;BME280;51680;49.806;18.774;2022-10-03T18:45:17;97639.88;;;13.28;86.05
41044;BME280;51680;49.806;18.774;2022-10-03T18:48:28;97641.56;;;13.29;85.75